Time;durP1;ratioP1;P1;durP2;ratioP2;P2;SDS_P1;SDS_P2;PMS_P1;PMS_P2;Temp;Humidity;BMP_temperature;BMP_pressure;BME280_temperature;BME280_humidity;BME280_pressure;Samples;Min_cycle;Max_cycle;Signal;HPM_P1;HPM_P2
2022/11/14 00:01:59;;;;;;;19.23;14.98;;;;;;;;;;6241675;28;20053;-63
2022/11/14 00:05:02;;;;;;;19.15;14.30;;;;;;;;;;6240775;28;20384;-63
2022/11/14 00:08:04;;;;;;;20.45;15.23;;;;;;;;;;6239686;28;20100;-63
2022/11/14 00:11:05;;;;;;;18.92;14.32;;;;;;;;;;6240524;28;20052;-63
2022/11/14 00:14:07;;;;;;;19.83;15.38;;;;;;;;;;6238126;28;20100;-63
2022/11/14 00:17:09;;;;;;;21.05;14.82;;;;;;;;;;6238210;28;20053;-63
2022/11/14 00:20:13;;;;;;;19.55;15.38;;;;;;;;;;6243088;28;20325;-62
2022/11/14 00:23:14;;;;;;;121.35;76.40;;;;;;;;;;6240402;28;20057;-62
2022/11/14 00:26:16;;;;;;;200.32;129.23;;;;;;;;;;6239600;28;20049;-63
2022/11/14 00:29:17;;;;;;;105.13;69.07;;;;;;;;;;6238965;28;20096;-62
2022/11/14 00:32:21;;;;;;;148.75;80.88;;;;;;;;;;6239451;28;20245;-62
2022/11/14 00:35:24;;;;;;;63.05;40.20;;;;;;;;;;6239491;28;20060;-63
2022/11/14 00:38:25;;;;;;;42.40;28.13;;;;;;;;;;6237809;28;20053;-62
2022/11/14 00:41:27;;;;;;;46.65;30.20;;;;;;;;;;6243135;28;20103;-66
2022/11/14 00:44:29;;;;;;;30.75;21.40;;;;;;;;;;6237080;28;20095;-63
2022/11/14 00:47:30;;;;;;;24.25;19.00;;;;;;;;;;6239696;28;20253;-63
2022/11/14 00:50:33;;;;;;;24.27;16.88;;;;;;;;;;6239597;28;20049;-63
2022/11/14 00:53:35;;;;;;;21.95;16.92;;;;;;;;;;6236572;28;20052;-62
2022/11/14 00:56:37;;;;;;;20.15;16.10;;;;;;;;;;6241772;28;20053;-63
2022/11/14 00:59:38;;;;;;;21.15;16.05;;;;;;;;;;6240792;28;20056;-62
2022/11/14 01:02:40;;;;;;;21.75;17.15;;;;;;;;;;6237647;28;20139;-62
2022/11/14 01:05:44;;;;;;;22.42;17.52;;;;;;;;;;6238103;28;20115;-62
2022/11/14 01:08:45;;;;;;;22.95;16.75;;;;;;;;;;6241979;28;20069;-63
2022/11/14 01:11:47;;;;;;;25.75;18.30;;;;;;;;;;6237858;28;20053;-63
2022/11/14 01:14:48;;;;;;;22.10;16.85;;;;;;;;;;6237488;28;20053;-63
2022/11/14 01:17:50;;;;;;;22.13;16.02;;;;;;;;;;6243356;28;20486;-63
2022/11/14 01:20:54;;;;;;;21.70;16.15;;;;;;;;;;6236330;28;20391;-62
2022/11/14 01:23:55;;;;;;;21.85;17.20;;;;;;;;;;6233788;28;20342;-63
2022/11/14 01:26:57;;;;;;;22.38;15.90;;;;;;;;;;6239254;28;20046;-62
2022/11/14 01:29:58;;;;;;;24.15;17.73;;;;;;;;;;6233906;28;20061;-62
2022/11/14 01:33:01;;;;;;;19.75;15.63;;;;;;;;;;6237365;28;20099;-62
2022/11/14 01:36:04;;;;;;;20.27;16.38;;;;;;;;;;6238313;28;20049;-63
2022/11/14 01:39:06;;;;;;;23.10;16.13;;;;;;;;;;6239959;28;20322;-63
2022/11/14 01:42:08;;;;;;;22.05;15.95;;;;;;;;;;6233073;28;20069;-63
2022/11/14 01:45:48;;;;;;;19.95;16.23;;;;;;;;;;6240392;28;20119;-62
2022/11/14 01:48:52;;;;;;;20.30;16.35;;;;;;;;;;6239583;28;20042;-62
2022/11/14 01:51:55;;;;;;;;;;;;;;;;;;6237422;28;20075;-63
2022/11/14 01:54:59;;;;;;;23.23;16.65;;;;;;;;;;6238176;28;20117;-63
2022/11/14 01:58:00;;;;;;;21.52;16.08;;;;;;;;;;6237960;28;20045;-63
2022/11/14 02:01:02;;;;;;;21.83;16.10;;;;;;;;;;6238032;28;20067;-63
2022/11/14 02:04:05;;;;;;;20.90;15.10;;;;;;;;;;6238855;28;20058;-63
2022/11/14 02:07:09;;;;;;;21.23;15.70;;;;;;;;;;6234790;28;20046;-63
2022/11/14 02:10:16;;;;;;;17.73;14.30;;;;;;;;;;6238634;28;20053;-63
2022/11/14 02:13:18;;;;;;;19.02;14.10;;;;;;;;;;6235869;28;20050;-62
2022/11/14 02:16:20;;;;;;;18.52;14.52;;;;;;;;;;6234864;28;20096;-63
2022/11/14 02:19:22;;;;;;;16.15;12.73;;;;;;;;;;6239209;28;20104;-62
2022/11/14 02:22:25;;;;;;;16.65;12.88;;;;;;;;;;6226389;28;20053;-63
2022/11/14 02:25:26;;;;;;;16.20;12.63;;;;;;;;;;6224137;28;20123;-63
2022/11/14 02:28:28;;;;;;;15.98;12.70;;;;;;;;;;6223049;28;20439;-62
2022/11/14 02:31:30;;;;;;;15.23;12.48;;;;;;;;;;6229658;28;20053;-63
2022/11/14 02:34:31;;;;;;;16.20;12.30;;;;;;;;;;6231521;28;20293;-62
2022/11/14 02:37:35;;;;;;;15.90;13.00;;;;;;;;;;6232491;28;20056;-61
2022/11/14 02:40:36;;;;;;;19.80;14.67;;;;;;;;;;6236079;28;20270;-63
2022/11/14 02:43:38;;;;;;;20.42;14.80;;;;;;;;;;6228602;28;20852;-63
2022/11/14 02:46:39;;;;;;;19.80;15.15;;;;;;;;;;6229712;28;20060;-63
2022/11/14 02:49:41;;;;;;;20.20;14.98;;;;;;;;;;6229602;28;20133;-62
2022/11/14 02:52:44;;;;;;;19.70;14.85;;;;;;;;;;6233960;28;20049;-62
2022/11/14 02:55:46;;;;;;;20.17;15.15;;;;;;;;;;6233717;28;20103;-62
2022/11/14 02:58:47;;;;;;;19.38;14.85;;;;;;;;;;6231006;28;20156;-62
2022/11/14 03:01:49;;;;;;;19.40;15.30;;;;;;;;;;6231215;28;20061;-63
2022/11/14 03:04:50;;;;;;;20.08;15.38;;;;;;;;;;6238745;28;20050;-63
2022/11/14 03:07:54;;;;;;;20.10;15.82;;;;;;;;;;6229083;28;20330;-63
2022/11/14 03:10:56;;;;;;;22.20;16.02;;;;;;;;;;6228082;28;20103;-63
2022/11/14 03:13:59;;;;;;;21.42;16.23;;;;;;;;;;6227911;28;20103;-62
2022/11/14 03:17:01;;;;;;;20.35;15.15;;;;;;;;;;6228907;28;20104;-63
2022/11/14 03:20:03;;;;;;;22.00;16.13;;;;;;;;;;6229959;28;20080;-62
2022/11/14 03:23:06;;;;;;;21.40;16.67;;;;;;;;;;6228786;28;20053;-62
2022/11/14 03:26:09;;;;;;;21.83;17.00;;;;;;;;;;6228482;28;20061;-62
2022/11/14 03:29:11;;;;;;;22.27;17.27;;;;;;;;;;6232441;28;20057;-62
2022/11/14 03:32:13;;;;;;;22.23;17.00;;;;;;;;;;6230075;28;20193;-62
2022/11/14 03:35:14;;;;;;;23.73;17.30;;;;;;;;;;6236369;28;20337;-62
2022/11/14 03:38:17;;;;;;;23.17;17.10;;;;;;;;;;6229871;28;20442;-62
2022/11/14 03:41:19;;;;;;;23.00;17.37;;;;;;;;;;6227150;28;20287;-62
2022/11/14 03:44:21;;;;;;;24.33;17.50;;;;;;;;;;6234241;28;20230;-63
2022/11/14 03:47:22;;;;;;;23.65;16.95;;;;;;;;;;6225353;28;20107;-62
2022/11/14 03:50:24;;;;;;;24.42;17.80;;;;;;;;;;6226594;28;20050;-62
2022/11/14 03:53:27;;;;;;;23.35;17.15;;;;;;;;;;6230836;28;20088;-62
2022/11/14 03:56:29;;;;;;;23.00;17.63;;;;;;;;;;6228868;28;20076;-62
2022/11/14 03:59:31;;;;;;;23.77;17.88;;;;;;;;;;6228466;28;20104;-62
2022/11/14 04:02:33;;;;;;;26.50;19.08;;;;;;;;;;6227401;28;20053;-62
2022/11/14 04:05:34;;;;;;;24.85;18.55;;;;;;;;;;6231994;28;20395;-62
2022/11/14 04:08:40;;;;;;;25.65;19.63;;;;;;;;;;6222477;28;20065;-62
2022/11/14 04:11:41;;;;;;;25.25;19.13;;;;;;;;;;6224423;28;20052;-62
2022/11/14 04:14:43;;;;;;;28.23;20.10;;;;;;;;;;6229668;28;20108;-61
2022/11/14 04:17:45;;;;;;;26.35;19.60;;;;;;;;;;6231089;28;20050;-62
2022/11/14 04:20:47;;;;;;;29.48;19.88;;;;;;;;;;6229240;28;20064;-61
2022/11/14 04:23:50;;;;;;;25.92;20.02;;;;;;;;;;6218511;28;20258;-61
2022/11/14 04:26:52;;;;;;;29.30;21.30;;;;;;;;;;6231614;28;20049;-62
2022/11/14 04:29:53;;;;;;;28.50;20.67;;;;;;;;;;6228601;28;20079;-61
2022/11/14 04:32:55;;;;;;;27.35;20.65;;;;;;;;;;6229455;28;20396;-64
2022/11/14 04:35:56;;;;;;;29.02;20.92;;;;;;;;;;6225531;28;20053;-64
2022/11/14 04:39:00;;;;;;;27.88;20.98;;;;;;;;;;6229376;28;20069;-63
2022/11/14 04:42:02;;;;;;;30.63;21.98;;;;;;;;;;6227254;28;20237;-63
2022/11/14 04:45:04;;;;;;;29.60;21.45;;;;;;;;;;6228718;28;20132;-64
2022/11/14 04:48:06;;;;;;;32.95;23.10;;;;;;;;;;6227277;28;20057;-63
2022/11/14 04:51:08;;;;;;;29.73;21.88;;;;;;;;;;6226333;28;20094;-63
2022/11/14 04:54:11;;;;;;;31.55;22.75;;;;;;;;;;6227396;28;20219;-64
2022/11/14 04:57:12;;;;;;;33.30;22.95;;;;;;;;;;6229272;28;20055;-64
2022/11/14 05:00:15;;;;;;;30.17;21.60;;;;;;;;;;6228709;28;20045;-64
2022/11/14 05:03:17;;;;;;;30.08;21.92;;;;;;;;;;6228662;28;20104;-63
2022/11/14 05:06:18;;;;;;;29.48;21.80;;;;;;;;;;6227104;28;20050;-63
2022/11/14 05:09:21;;;;;;;31.23;21.77;;;;;;;;;;6230474;28;20061;-64
2022/11/14 05:12:23;;;;;;;30.05;21.90;;;;;;;;;;6224937;28;20100;-64
2022/11/14 05:15:24;;;;;;;31.35;23.23;;;;;;;;;;6224469;28;20064;-64
2022/11/14 05:18:26;;;;;;;30.27;22.08;;;;;;;;;;6229080;28;20432;-64
2022/11/14 05:21:28;;;;;;;31.00;22.33;;;;;;;;;;6228087;28;20061;-63
2022/11/14 05:24:31;;;;;;;33.15;22.75;;;;;;;;;;6225771;28;20049;-64
2022/11/14 05:27:32;;;;;;;31.73;22.63;;;;;;;;;;6218264;28;20101;-63
2022/11/14 05:30:34;;;;;;;31.42;21.90;;;;;;;;;;6228605;28;20080;-64
2022/11/14 05:33:36;;;;;;;32.30;22.90;;;;;;;;;;6228723;28;20072;-63
2022/11/14 05:36:38;;;;;;;32.22;22.35;;;;;;;;;;6224448;28;20235;-64
2022/11/14 05:39:41;;;;;;;32.67;22.17;;;;;;;;;;6227002;28;20054;-64
2022/11/14 05:42:42;;;;;;;33.88;22.48;;;;;;;;;;6228102;28;20057;-64
2022/11/14 05:45:44;;;;;;;31.00;21.83;;;;;;;;;;6227398;28;20064;-65
2022/11/14 05:48:55;;;;;;;30.27;22.48;;;;;;;;;;6226913;28;20061;-64
2022/11/14 05:51:57;;;;;;;34.60;22.80;;;;;;;;;;6228689;28;20126;-65
2022/11/14 05:55:00;;;;;;;33.38;23.65;;;;;;;;;;6222979;28;20119;-63
2022/11/14 05:58:02;;;;;;;33.35;24.13;;;;;;;;;;6220203;28;20148;-63
2022/11/14 06:01:04;;;;;;;36.85;23.40;;;;;;;;;;6226803;28;20057;-62
2022/11/14 06:04:06;;;;;;;32.72;23.40;;;;;;;;;;6222132;28;20061;-62
2022/11/14 06:07:08;;;;;;;31.00;22.48;;;;;;;;;;6214267;28;20045;-62
2022/11/14 06:10:13;;;;;;;34.42;23.85;;;;;;;;;;6208758;28;20334;-61
2022/11/14 06:16:25;;;;;;;33.92;23.73;;;;;;;;;;6277488;22;20041;-63
2022/11/14 06:19:27;;;;;;;33.80;23.75;;;;;;;;;;6268636;28;20057;-63
2022/11/14 06:22:28;;;;;;;32.95;24.30;;;;;;;;;;6267131;28;20093;-62
2022/11/14 06:25:31;;;;;;;34.65;24.40;;;;;;;;;;6266372;28;20336;-62
2022/11/14 06:28:33;;;;;;;32.50;22.92;;;;;;;;;;6264947;28;20053;-62
2022/11/14 06:31:35;;;;;;;33.22;25.33;;;;;;;;;;6259968;28;20049;-60
2022/11/14 06:34:37;;;;;;;34.00;24.55;;;;;;;;;;6264727;28;20348;-63
2022/11/14 06:37:38;;;;;;;34.00;23.23;;;;;;;;;;6269127;28;20390;-62
2022/11/14 06:40:41;;;;;;;34.03;24.73;;;;;;;;;;6271527;28;20385;-63
2022/11/14 06:43:44;;;;;;;34.80;24.88;;;;;;;;;;6265115;28;20057;-63
2022/11/14 06:46:46;;;;;;;34.25;23.23;;;;;;;;;;6266356;28;20041;-63
2022/11/14 06:49:47;;;;;;;30.50;22.55;;;;;;;;;;6269932;28;20095;-63
2022/11/14 06:52:49;;;;;;;33.40;23.35;;;;;;;;;;6274438;28;20328;-62
2022/11/14 06:55:56;;;;;;;31.08;22.65;;;;;;;;;;6268146;28;20060;-61
2022/11/14 06:58:57;;;;;;;34.08;24.20;;;;;;;;;;6268843;28;20056;-61
2022/11/14 07:01:59;;;;;;;33.80;22.95;;;;;;;;;;6268844;28;20095;-62
2022/11/14 07:05:00;;;;;;;30.75;22.50;;;;;;;;;;6268193;28;20095;-61
2022/11/14 07:08:02;;;;;;;34.85;24.00;;;;;;;;;;6271633;28;20347;-61
2022/11/14 07:11:06;;;;;;;33.35;22.33;;;;;;;;;;6265361;28;20076;-61
2022/11/14 07:14:09;;;;;;;39.15;24.17;;;;;;;;;;6269518;28;20137;-61
2022/11/14 07:17:10;;;;;;;31.00;22.25;;;;;;;;;;6272544;28;20139;-61
2022/11/14 07:20:12;;;;;;;31.98;23.38;;;;;;;;;;6263942;28;20072;-61
2022/11/14 07:23:14;;;;;;;30.85;22.67;;;;;;;;;;6266633;28;20076;-63
2022/11/14 07:26:17;;;;;;;34.58;23.65;;;;;;;;;;6265316;28;20079;-63
2022/11/14 07:29:19;;;;;;;32.37;22.67;;;;;;;;;;6266484;28;20064;-62
2022/11/14 07:32:20;;;;;;;31.45;22.05;;;;;;;;;;6269363;28;20052;-61
2022/11/14 07:35:22;;;;;;;30.60;21.38;;;;;;;;;;6266216;28;20279;-63
2022/11/14 07:38:24;;;;;;;31.05;21.50;;;;;;;;;;6265360;28;20300;-62
2022/11/14 07:41:27;;;;;;;29.92;20.60;;;;;;;;;;6266249;28;20087;-61
2022/11/14 07:44:28;;;;;;;27.45;20.20;;;;;;;;;;6267599;28;20053;-61
2022/11/14 07:47:30;;;;;;;31.52;21.20;;;;;;;;;;6267272;28;20060;-61
2022/11/14 07:50:32;;;;;;;28.33;20.25;;;;;;;;;;6265449;28;20283;-61
2022/11/14 07:53:34;;;;;;;24.13;18.73;;;;;;;;;;6269171;28;20283;-62
2022/11/14 07:56:37;;;;;;;28.80;19.88;;;;;;;;;;6265878;28;20053;-61
2022/11/14 07:59:39;;;;;;;27.58;19.08;;;;;;;;;;6269051;28;20100;-62
2022/11/14 08:02:40;;;;;;;27.08;19.45;;;;;;;;;;6267341;28;20053;-60
2022/11/14 08:05:42;;;;;;;27.35;20.00;;;;;;;;;;6268882;28;20057;-61
2022/11/14 08:08:43;;;;;;;28.00;19.00;;;;;;;;;;6267896;28;20049;-61
2022/11/14 08:11:49;;;;;;;25.70;18.42;;;;;;;;;;6264311;28;20049;-62
2022/11/14 08:14:51;;;;;;;24.83;17.40;;;;;;;;;;6266754;28;20344;-61
2022/11/14 08:17:52;;;;;;;26.05;19.00;;;;;;;;;;6265439;28;20045;-61
2022/11/14 08:20:56;;;;;;;26.13;18.45;;;;;;;;;;6267200;28;20053;-61
2022/11/14 08:23:58;;;;;;;24.75;17.13;;;;;;;;;;6267499;28;20057;-61
2022/11/14 08:27:01;;;;;;;24.42;17.73;;;;;;;;;;6262647;28;20333;-61
2022/11/14 08:30:02;;;;;;;25.50;17.63;;;;;;;;;;6264721;28;20056;-61
2022/11/14 08:33:05;;;;;;;25.52;18.15;;;;;;;;;;6265216;28;20694;-61
2022/11/14 08:36:07;;;;;;;23.38;16.63;;;;;;;;;;6267716;28;20360;-61
2022/11/14 08:39:09;;;;;;;25.05;17.00;;;;;;;;;;6267772;28;20102;-61
2022/11/14 08:42:12;;;;;;;25.15;18.35;;;;;;;;;;6265574;28;20090;-61
2022/11/14 08:45:14;;;;;;;22.90;16.90;;;;;;;;;;6268136;28;20049;-61
2022/11/14 08:48:15;;;;;;;24.45;17.27;;;;;;;;;;6267433;28;20057;-61
2022/11/14 08:51:17;;;;;;;23.75;16.98;;;;;;;;;;6259245;28;20275;-61
2022/11/14 08:54:19;;;;;;;21.50;16.20;;;;;;;;;;6262772;28;20045;-61
2022/11/14 08:57:22;;;;;;;23.67;17.25;;;;;;;;;;6261187;28;20045;-61
2022/11/14 09:00:23;;;;;;;23.63;17.00;;;;;;;;;;6265044;28;20123;-61
2022/11/14 09:03:25;;;;;;;21.77;16.73;;;;;;;;;;6268229;28;20103;-61
2022/11/14 09:06:27;;;;;;;22.98;16.50;;;;;;;;;;6266375;28;20046;-61
2022/11/14 09:09:28;;;;;;;24.55;16.10;;;;;;;;;;6267892;28;20095;-61
2022/11/14 09:12:32;;;;;;;23.55;17.35;;;;;;;;;;6266747;28;20056;-62
2022/11/14 09:15:33;;;;;;;25.30;16.67;;;;;;;;;;6260368;28;20404;-61
2022/11/14 09:18:35;;;;;;;23.73;15.45;;;;;;;;;;6265130;28;20116;-61
2022/11/14 09:21:37;;;;;;;21.98;15.23;;;;;;;;;;6264160;28;20072;-61
2022/11/14 09:24:38;;;;;;;20.10;15.38;;;;;;;;;;6262121;28;20115;-61
2022/11/14 09:27:41;;;;;;;18.38;14.32;;;;;;;;;;6265140;28;20094;-61
2022/11/14 09:30:43;;;;;;;20.00;14.68;;;;;;;;;;6258148;28;20107;-62
2022/11/14 09:33:45;;;;;;;20.83;14.82;;;;;;;;;;6267859;28;20367;-62
2022/11/14 09:36:46;;;;;;;20.92;14.80;;;;;;;;;;6265767;28;20074;-61
2022/11/14 09:39:48;;;;;;;21.02;15.05;;;;;;;;;;6254413;28;20154;-62
2022/11/14 09:43:16;;;;;;;21.38;14.05;;;;;;;;;;6262247;28;20063;-62
2022/11/14 09:46:20;;;;;;;19.40;14.13;;;;;;;;;;6254469;28;20328;-62
2022/11/14 09:49:27;;;;;;;20.38;14.48;;;;;;;;;;6265312;28;20060;-61
2022/11/14 09:52:35;;;;;;;18.85;13.43;;;;;;;;;;6266230;28;20052;-61
2022/11/14 09:55:37;;;;;;;20.52;14.38;;;;;;;;;;6256125;28;20049;-61
2022/11/14 09:58:40;;;;;;;19.60;14.05;;;;;;;;;;6264671;28;20045;-61
2022/11/14 10:01:48;;;;;;;20.23;14.90;;;;;;;;;;6264059;28;20068;-61
2022/11/14 10:05:00;;;;;;;17.67;13.27;;;;;;;;;;6258197;28;20099;-61
2022/11/14 10:08:15;;;;;;;19.85;13.68;;;;;;;;;;6263164;28;20057;-61
2022/11/14 10:11:22;;;;;;;20.42;14.25;;;;;;;;;;6266149;28;20102;-61
2022/11/14 10:14:41;;;;;;;21.38;14.95;;;;;;;;;;6263447;28;20096;-62
2022/11/14 10:17:53;;;;;;;19.38;14.05;;;;;;;;;;6264219;28;20305;-62
2022/11/14 10:20:57;;;;;;;21.60;15.50;;;;;;;;;;6264335;28;20049;-62
2022/11/14 10:24:05;;;;;;;19.10;14.50;;;;;;;;;;6258857;28;20141;-62
2022/11/14 10:27:11;;;;;;;18.95;12.93;;;;;;;;;;6260048;28;20053;-62
2022/11/14 10:30:16;;;;;;;17.38;12.88;;;;;;;;;;6267670;28;20076;-62
2022/11/14 10:33:25;;;;;;;17.60;13.32;;;;;;;;;;6270962;28;20284;-62
2022/11/14 10:36:50;;;;;;;18.30;13.20;;;;;;;;;;6269903;28;20060;-62
2022/11/14 10:39:53;;;;;;;16.48;12.70;;;;;;;;;;6271778;28;20119;-63
2022/11/14 10:42:57;;;;;;;18.83;13.43;;;;;;;;;;6272024;28;20057;-62
2022/11/14 10:46:05;;;;;;;19.88;13.38;;;;;;;;;;6270902;28;20069;-62
2022/11/14 10:49:15;;;;;;;17.00;12.98;;;;;;;;;;6275827;28;20048;-62
2022/11/14 10:52:20;;;;;;;17.48;12.98;;;;;;;;;;6265836;28;20049;-62
2022/11/14 10:55:23;;;;;;;17.35;13.18;;;;;;;;;;6275688;28;20351;-62
2022/11/14 10:58:24;;;;;;;18.48;13.48;;;;;;;;;;6274789;28;20085;-62
2022/11/14 11:01:35;;;;;;;21.05;14.40;;;;;;;;;;6273874;28;20417;-61
2022/11/14 11:04:38;;;;;;;19.38;14.15;;;;;;;;;;6253531;28;20328;-62
2022/11/14 11:14:24;;;;;;;19.00;13.68;;;;;;;;;;6260154;28;20065;-62
2022/11/14 11:17:27;;;;;;;20.48;15.25;;;;;;;;;;6270432;28;20049;-62
2022/11/14 11:20:32;;;;;;;17.67;14.27;;;;;;;;;;6268773;28;20232;-61
2022/11/14 11:23:34;;;;;;;17.73;13.70;;;;;;;;;;6271159;28;20391;-61
2022/11/14 11:26:35;;;;;;;17.98;13.05;;;;;;;;;;6261276;28;20068;-62
2022/11/14 11:29:37;;;;;;;17.67;12.88;;;;;;;;;;6268361;28;20053;-62
2022/11/14 11:32:40;;;;;;;17.38;13.25;;;;;;;;;;6268168;28;20095;-63
2022/11/14 11:35:43;;;;;;;17.33;12.82;;;;;;;;;;6268476;28;20057;-62
2022/11/14 11:38:45;;;;;;;17.17;12.18;;;;;;;;;;6268561;28;20260;-62
2022/11/14 11:41:48;;;;;;;17.85;12.85;;;;;;;;;;6266387;28;20057;-62
2022/11/14 11:44:54;;;;;;;16.70;12.23;;;;;;;;;;6266469;28;20056;-62
2022/11/14 11:47:59;;;;;;;15.15;11.45;;;;;;;;;;6260261;28;20061;-62
2022/11/14 11:51:02;;;;;;;14.50;11.20;;;;;;;;;;6267518;28;20080;-62
2022/11/14 11:54:11;;;;;;;16.33;12.25;;;;;;;;;;6264302;28;20058;-61
2022/11/14 11:57:16;;;;;;;15.35;11.65;;;;;;;;;;6263587;28;20057;-61
2022/11/14 12:00:20;;;;;;;16.17;11.82;;;;;;;;;;6265405;28;20332;-61
2022/11/14 12:03:24;;;;;;;14.30;11.25;;;;;;;;;;6257299;28;20174;-62
2022/11/14 12:06:28;;;;;;;14.43;10.95;;;;;;;;;;6266721;28;20060;-61
2022/11/14 12:09:33;;;;;;;14.43;11.02;;;;;;;;;;6266114;28;20244;-61
2022/11/14 12:12:51;;;;;;;14.50;11.52;;;;;;;;;;6258526;28;20101;-61
2022/11/14 12:16:07;;;;;;;16.08;11.95;;;;;;;;;;6264224;28;20061;-61
2022/11/14 12:19:39;;;;;;;15.15;11.88;;;;;;;;;;6264851;28;20304;-61
2022/11/14 12:23:01;;;;;;;15.27;11.27;;;;;;;;;;6265672;28;20056;-62
2022/11/14 12:26:14;;;;;;;17.02;11.98;;;;;;;;;;6266170;28;20099;-61
2022/11/14 12:29:25;;;;;;;16.23;12.00;;;;;;;;;;6265429;28;20041;-61
2022/11/14 12:32:32;;;;;;;15.68;11.93;;;;;;;;;;6263348;28;20048;-61
2022/11/14 12:35:38;;;;;;;14.30;11.43;;;;;;;;;;6268237;28;20045;-61
2022/11/14 12:38:44;;;;;;;16.40;12.07;;;;;;;;;;6267729;28;20206;-61
2022/11/14 12:41:45;;;;;;;17.63;11.75;;;;;;;;;;6267696;28;20057;-62
2022/11/14 12:44:47;;;;;;;16.98;11.38;;;;;;;;;;6267521;28;20056;-62
2022/11/14 12:48:15;;;;;;;14.30;11.40;;;;;;;;;;6264244;28;20320;-61
2022/11/14 12:51:51;;;;;;;15.00;11.85;;;;;;;;;;6265233;28;20079;-61
2022/11/14 12:54:53;;;;;;;15.50;11.00;;;;;;;;;;6246523;28;20051;-61
2022/11/14 12:58:01;;;;;;;14.95;11.13;;;;;;;;;;6263209;28;20049;-61
2022/11/14 13:01:12;;;;;;;14.18;10.50;;;;;;;;;;6267739;28;20045;-61
2022/11/14 13:04:22;;;;;;;14.57;11.63;;;;;;;;;;6261310;28;20057;-61
2022/11/14 13:07:32;;;;;;;14.20;10.10;;;;;;;;;;6266773;28;20127;-61
2022/11/14 13:10:38;;;;;;;15.18;10.95;;;;;;;;;;6264891;28;20190;-61
2022/11/14 13:24:11;;;;;;;16.48;11.10;;;;;;;;;;6251002;28;20401;-61
2022/11/14 13:27:26;;;;;;;20.02;11.45;;;;;;;;;;6265430;28;20059;-61
2022/11/14 13:31:01;;;;;;;14.80;10.60;;;;;;;;;;6262355;28;21222;-61
2022/11/14 13:34:36;;;;;;;12.57;9.57;;;;;;;;;;6267444;28;20099;-61
2022/11/14 13:37:59;;;;;;;13.63;10.80;;;;;;;;;;6263852;28;20048;-61
2022/11/14 13:41:13;;;;;;;13.50;9.90;;;;;;;;;;6262796;28;20056;-61
2022/11/14 13:44:30;;;;;;;;;;;;;;;;;;6262986;28;20430;-60
2022/11/14 13:47:56;;;;;;;14.40;10.02;;;;;;;;;;6266743;28;19925;-61
2022/11/14 13:51:01;;;;;;;13.50;10.02;;;;;;;;;;6264544;28;20048;-63
2022/11/14 13:54:02;;;;;;;13.30;10.15;;;;;;;;;;6264216;28;20056;-63
2022/11/14 13:57:11;;;;;;;13.30;9.50;;;;;;;;;;6265734;28;20350;-63
2022/11/14 14:00:15;;;;;;;12.65;10.00;;;;;;;;;;6262632;28;20052;-62
2022/11/14 14:03:25;;;;;;;14.48;10.88;;;;;;;;;;6265655;28;20091;-62
2022/11/14 14:06:34;;;;;;;13.80;10.45;;;;;;;;;;6265794;28;20045;-61
2022/11/14 14:09:43;;;;;;;13.18;10.40;;;;;;;;;;6266226;28;20218;-62
2022/11/14 14:12:58;;;;;;;12.55;10.18;;;;;;;;;;6265239;28;20095;-61
2022/11/14 14:16:04;;;;;;;13.38;10.48;;;;;;;;;;6260688;28;20566;-65
2022/11/14 14:19:12;;;;;;;14.25;9.82;;;;;;;;;;6264681;28;20048;-61
2022/11/14 14:22:19;;;;;;;14.00;9.82;;;;;;;;;;6264812;28;20389;-61
2022/11/14 14:25:26;;;;;;;13.65;10.32;;;;;;;;;;6269759;28;20075;-61
2022/11/14 14:28:37;;;;;;;17.77;11.77;;;;;;;;;;6268899;28;20157;-62
2022/11/14 14:31:41;;;;;;;15.57;11.88;;;;;;;;;;6272194;28;20248;-61
2022/11/14 14:34:43;;;;;;;18.85;13.68;;;;;;;;;;6270197;28;20057;-62
2022/11/14 14:37:50;;;;;;;17.90;12.95;;;;;;;;;;6268658;28;20213;-62
2022/11/14 14:40:54;;;;;;;21.25;13.52;;;;;;;;;;6267912;28;20049;-62
2022/11/14 14:43:57;;;;;;;18.33;13.68;;;;;;;;;;6269475;28;20368;-62
2022/11/14 14:46:58;;;;;;;17.57;12.87;;;;;;;;;;6271034;28;20099;-62
2022/11/14 14:50:01;;;;;;;19.35;13.23;;;;;;;;;;6266670;28;20111;-62
2022/11/14 14:53:04;;;;;;;19.17;13.70;;;;;;;;;;6270391;28;20049;-62
2022/11/14 14:56:07;;;;;;;20.20;14.35;;;;;;;;;;6270505;28;20279;-62
2022/11/14 14:59:18;;;;;;;18.52;12.52;;;;;;;;;;6268170;28;20190;-62
2022/11/14 15:02:21;;;;;;;17.88;12.65;;;;;;;;;;6271077;28;20053;-62
2022/11/14 15:05:23;;;;;;;18.40;12.95;;;;;;;;;;6267754;28;20075;-62
2022/11/14 15:08:25;;;;;;;16.23;12.30;;;;;;;;;;6266091;28;20292;-62
2022/11/14 15:11:27;;;;;;;15.95;12.43;;;;;;;;;;6269579;28;20075;-61
2022/11/14 15:14:31;;;;;;;16.77;12.93;;;;;;;;;;6266693;28;20057;-61
2022/11/14 15:17:33;;;;;;;17.85;13.20;;;;;;;;;;6268513;28;20052;-61
2022/11/14 15:20:35;;;;;;;16.95;12.75;;;;;;;;;;6267384;28;20053;-62
2022/11/14 15:23:37;;;;;;;17.17;12.65;;;;;;;;;;6267024;28;20057;-61
2022/11/14 15:26:40;;;;;;;20.20;13.85;;;;;;;;;;6272048;28;20048;-62
2022/11/14 15:29:47;;;;;;;17.45;13.18;;;;;;;;;;6272080;28;20053;-62
2022/11/14 15:32:50;;;;;;;17.48;13.23;;;;;;;;;;6272738;28;20044;-61
2022/11/14 15:36:05;;;;;;;17.75;13.15;;;;;;;;;;6268130;28;20147;-62
2022/11/14 15:39:22;;;;;;;17.58;12.48;;;;;;;;;;6268212;28;20140;-62
2022/11/14 15:42:28;;;;;;;16.60;12.52;;;;;;;;;;6274273;28;20056;-62
2022/11/14 15:45:40;;;;;;;16.75;12.63;;;;;;;;;;6270014;28;20049;-61
2022/11/14 15:48:42;;;;;;;19.45;13.98;;;;;;;;;;6271698;28;20057;-62
2022/11/14 15:51:45;;;;;;;18.40;13.35;;;;;;;;;;6272071;28;20057;-61
2022/11/14 15:54:46;;;;;;;20.43;13.77;;;;;;;;;;6272938;28;20041;-61
2022/11/14 15:57:48;;;;;;;17.88;12.80;;;;;;;;;;6269649;28;20049;-62
2022/11/14 16:00:53;;;;;;;18.38;13.07;;;;;;;;;;6268916;28;20111;-61
2022/11/14 16:03:54;;;;;;;16.70;12.88;;;;;;;;;;6272170;28;20692;-62
2022/11/14 16:06:56;;;;;;;18.25;13.27;;;;;;;;;;6271997;28;20352;-62
2022/11/14 16:09:58;;;;;;;17.77;13.00;;;;;;;;;;6273970;28;20075;-62
2022/11/14 16:12:59;;;;;;;17.75;13.48;;;;;;;;;;6272829;28;20099;-62
2022/11/14 16:16:02;;;;;;;21.52;13.70;;;;;;;;;;6267270;28;20343;-62
2022/11/14 16:19:04;;;;;;;21.10;14.43;;;;;;;;;;6270197;28;20044;-62
2022/11/14 16:22:09;;;;;;;21.33;14.45;;;;;;;;;;6269193;28;20057;-61
2022/11/14 16:25:12;;;;;;;;;;;;;;;;;;6261536;28;20071;-61
2022/11/14 16:28:14;;;;;;;44.03;26.10;;;;;;;;;;6267422;28;20109;-61
2022/11/14 16:31:17;;;;;;;37.60;23.67;;;;;;;;;;6266140;28;20053;-62
2022/11/14 16:34:21;;;;;;;29.63;19.23;;;;;;;;;;6274969;28;20340;-61
2022/11/14 16:37:24;;;;;;;49.92;28.88;;;;;;;;;;6271862;28;20061;-61
2022/11/14 16:40:27;;;;;;;28.52;17.98;;;;;;;;;;6263102;28;20084;-63
2022/11/14 16:43:28;;;;;;;21.77;14.75;;;;;;;;;;6270053;28;20052;-62
2022/11/14 16:46:31;;;;;;;17.65;12.43;;;;;;;;;;6267446;28;20050;-62
2022/11/14 16:49:33;;;;;;;19.13;11.73;;;;;;;;;;6264861;28;20057;-61
2022/11/14 16:52:35;;;;;;;16.10;11.25;;;;;;;;;;6266113;28;20045;-62
2022/11/14 16:55:37;;;;;;;16.95;11.93;;;;;;;;;;6260555;28;20348;-62
2022/11/14 16:58:40;;;;;;;16.98;11.70;;;;;;;;;;6266498;28;20053;-62
2022/11/14 17:01:47;;;;;;;16.73;12.10;;;;;;;;;;6265789;28;21122;-62
2022/11/14 17:04:48;;;;;;;15.65;11.73;;;;;;;;;;6254896;28;20041;-62
2022/11/14 17:07:50;;;;;;;17.20;11.75;;;;;;;;;;6266000;28;20337;-62
2022/11/14 17:10:52;;;;;;;15.65;11.55;;;;;;;;;;6265410;28;20076;-62
2022/11/14 17:13:54;;;;;;;15.48;11.43;;;;;;;;;;6264228;28;20045;-62
2022/11/14 17:16:57;;;;;;;15.07;10.93;;;;;;;;;;6264133;28;20072;-62
2022/11/14 17:19:59;;;;;;;16.50;12.50;;;;;;;;;;6264457;28;20064;-62
2022/11/14 17:23:01;;;;;;;15.48;11.70;;;;;;;;;;6269042;28;20651;-62
2022/11/14 17:26:04;;;;;;;15.60;11.45;;;;;;;;;;6262884;28;20053;-62
2022/11/14 17:29:06;;;;;;;17.65;12.43;;;;;;;;;;6267278;28;20053;-62
2022/11/14 17:32:09;;;;;;;15.82;11.93;;;;;;;;;;6260428;28;20065;-62
2022/11/14 17:35:11;;;;;;;15.50;10.73;;;;;;;;;;6263637;28;20333;-62
2022/11/14 17:38:13;;;;;;;17.35;11.85;;;;;;;;;;6265145;28;20072;-62
2022/11/14 17:41:15;;;;;;;17.90;12.45;;;;;;;;;;6260300;28;20190;-62
2022/11/14 17:44:16;;;;;;;19.13;12.50;;;;;;;;;;6266342;28;22053;-62
2022/11/14 17:47:20;;;;;;;18.35;13.30;;;;;;;;;;6257682;28;20056;-61
2022/11/14 17:50:22;;;;;;;19.33;12.70;;;;;;;;;;6268177;28;20044;-62
2022/11/14 17:53:24;;;;;;;16.38;12.07;;;;;;;;;;6260551;28;20053;-62
2022/11/14 17:56:26;;;;;;;17.80;11.77;;;;;;;;;;6262841;28;20092;-62
2022/11/14 17:59:28;;;;;;;14.18;11.32;;;;;;;;;;6266149;28;20072;-62
2022/11/14 18:02:31;;;;;;;16.48;11.82;;;;;;;;;;6264988;28;20057;-62
2022/11/14 18:05:33;;;;;;;17.35;11.65;;;;;;;;;;6264658;28;20065;-62
2022/11/14 18:08:35;;;;;;;18.52;12.00;;;;;;;;;;6263866;28;20084;-62
2022/11/14 18:11:37;;;;;;;16.58;11.38;;;;;;;;;;6265693;28;20344;-62
2022/11/14 18:14:39;;;;;;;15.88;11.90;;;;;;;;;;6258778;28;20064;-62